South Hills, Pennsylvania
Current Conditions -  °F | °C
As of 3:53 AM on Friday 19 Dec 2014 (Local Time) from KAGC Reporting Station
Haze Haze  
Wind Chill: 17°   Ceiling: 1000
Heat Index: 27°   Visibility: 6mi
Dew Point: 21°   Wind: 10mph
Humidity: 78%   Direction: 250°WSW
Pressure: 30.13"   Gusts: NA
Location:  40.4037°N, 80.0349°W
Report Text: KAGC 190853Z 25009KT 6SM HZ OVC010 M03/M06 A3013 RMK AO2 SLP224 T10281061 50003
Loading
Personal Weather Stations






























Interactive Weather Map New forecast layout! Learn more

10-Day Weather Forecast

Advertisements
Track Severe Weather on mobile